sensor_id;sensor_type;location;lat;lon;timestamp;temperature;humidity
68109;SHT30;54893;49.864;19.084;2022-08-19T00:04:53;19.78;86.48
68109;SHT30;54893;49.864;19.084;2022-08-19T00:09:54;19.66;86.23
68109;SHT30;54893;49.864;19.084;2022-08-19T00:14:54;19.49;86.42
68109;SHT30;54893;49.864;19.084;2022-08-19T00:19:55;19.64;84.23
68109;SHT30;54893;49.864;19.084;2022-08-19T00:24:56;19.57;84.70
68109;SHT30;54893;49.864;19.084;2022-08-19T00:29:56;19.50;86.04
68109;SHT30;54893;49.864;19.084;2022-08-19T00:34:56;19.74;84.50
68109;SHT30;54893;49.864;19.084;2022-08-19T00:39:57;19.69;86.07
68109;SHT30;54893;49.864;19.084;2022-08-19T00:44:57;19.56;87.24
68109;SHT30;54893;49.864;19.084;2022-08-19T00:49:58;19.78;85.57
68109;SHT30;54893;49.864;19.084;2022-08-19T00:55:00;19.74;85.52
68109;SHT30;54893;49.864;19.084;2022-08-19T01:00:05;19.93;84.67
68109;SHT30;54893;49.864;19.084;2022-08-19T01:05:11;19.87;85.78
68109;SHT30;54893;49.864;19.084;2022-08-19T01:10:18;19.82;85.83
68109;SHT30;54893;49.864;19.084;2022-08-19T01:15:23;19.60;86.74
68109;SHT30;54893;49.864;19.084;2022-08-19T01:20:24;19.39;88.30
68109;SHT30;54893;49.864;19.084;2022-08-19T01:25:29;19.26;88.60
68109;SHT30;54893;49.864;19.084;2022-08-19T01:30:33;19.24;86.48
68109;SHT30;54893;49.864;19.084;2022-08-19T01:35:35;19.10;87.69
68109;SHT30;54893;49.864;19.084;2022-08-19T01:40:38;18.99;88.72
68109;SHT30;54893;49.864;19.084;2022-08-19T01:45:39;19.02;90.77
68109;SHT30;54893;49.864;19.084;2022-08-19T01:50:40;19.37;86.63
68109;SHT30;54893;49.864;19.084;2022-08-19T01:55:42;19.27;86.49
68109;SHT30;54893;49.864;19.084;2022-08-19T02:00:43;19.16;87.52
68109;SHT30;54893;49.864;19.084;2022-08-19T02:05:44;19.26;87.68
68109;SHT30;54893;49.864;19.084;2022-08-19T02:10:45;19.36;86.25
68109;SHT30;54893;49.864;19.084;2022-08-19T02:15:46;19.82;84.35
68109;SHT30;54893;49.864;19.084;2022-08-19T02:20:46;19.77;85.72
68109;SHT30;54893;49.864;19.084;2022-08-19T02:25:51;19.90;84.20
68109;SHT30;54893;49.864;19.084;2022-08-19T02:30:52;19.63;84.75
68109;SHT30;54893;49.864;19.084;2022-08-19T02:35:52;19.60;85.28
68109;SHT30;54893;49.864;19.084;2022-08-19T02:40:55;19.45;85.26
68109;SHT30;54893;49.864;19.084;2022-08-19T02:45:56;19.16;85.85
68109;SHT30;54893;49.864;19.084;2022-08-19T02:50:56;19.15;86.29
68109;SHT30;54893;49.864;19.084;2022-08-19T02:55:57;19.10;87.18
68109;SHT30;54893;49.864;19.084;2022-08-19T03:00:57;19.09;86.85
68109;SHT30;54893;49.864;19.084;2022-08-19T03:06:11;19.16;87.95
68109;SHT30;54893;49.864;19.084;2022-08-19T03:11:19;19.16;85.51
68109;SHT30;54893;49.864;19.084;2022-08-19T03:16:23;19.02;86.21
68109;SHT30;54893;49.864;19.084;2022-08-19T03:21:26;19.15;86.07
68109;SHT30;54893;49.864;19.084;2022-08-19T03:26:26;18.93;86.45
68109;SHT30;54893;49.864;19.084;2022-08-19T03:31:27;18.83;88.81
68109;SHT30;54893;49.864;19.084;2022-08-19T03:36:27;18.95;86.55
68109;SHT30;54893;49.864;19.084;2022-08-19T03:41:30;18.82;86.84
68109;SHT30;54893;49.864;19.084;2022-08-19T03:46:32;18.93;86.09
68109;SHT30;54893;49.864;19.084;2022-08-19T03:51:35;19.13;85.67
68109;SHT30;54893;49.864;19.084;2022-08-19T03:56:38;19.27;85.21
68109;SHT30;54893;49.864;19.084;2022-08-19T04:01:38;19.23;86.43
68109;SHT30;54893;49.864;19.084;2022-08-19T04:06:39;19.36;85.58
68109;SHT30;54893;49.864;19.084;2022-08-19T04:11:42;19.41;85.19
68109;SHT30;54893;49.864;19.084;2022-08-19T04:16:43;19.64;84.84
68109;SHT30;54893;49.864;19.084;2022-08-19T04:21:46;19.90;84.10
68109;SHT30;54893;49.864;19.084;2022-08-19T04:26:48;20.28;83.60
68109;SHT30;54893;49.864;19.084;2022-08-19T04:31:49;20.17;84.39
68109;SHT30;54893;49.864;19.084;2022-08-19T04:36:51;20.39;84.61
68109;SHT30;54893;49.864;19.084;2022-08-19T04:41:52;20.68;83.30
68109;SHT30;54893;49.864;19.084;2022-08-19T04:47:11;21.14;82.45
68109;SHT30;54893;49.864;19.084;2022-08-19T04:52:11;21.57;82.15
68109;SHT30;54893;49.864;19.084;2022-08-19T04:57:11;21.67;81.79
68109;SHT30;54893;49.864;19.084;2022-08-19T05:02:12;21.54;82.08
68109;SHT30;54893;49.864;19.084;2022-08-19T05:07:12;21.70;82.13
68109;SHT30;54893;49.864;19.084;2022-08-19T05:12:12;21.77;82.88
68109;SHT30;54893;49.864;19.084;2022-08-19T05:17:14;21.68;83.72
68109;SHT30;54893;49.864;19.084;2022-08-19T05:22:14;21.98;82.57
68109;SHT30;54893;49.864;19.084;2022-08-19T05:27:35;22.12;81.68
68109;SHT30;54893;49.864;19.084;2022-08-19T05:32:35;22.34;81.50
68109;SHT30;54893;49.864;19.084;2022-08-19T05:37:36;22.99;80.41
68109;SHT30;54893;49.864;19.084;2022-08-19T05:42:37;23.74;78.93
68109;SHT30;54893;49.864;19.084;2022-08-19T05:47:37;24.22;76.88
68109;SHT30;54893;49.864;19.084;2022-08-19T05:52:38;24.79;75.61
68109;SHT30;54893;49.864;19.084;2022-08-19T05:57:39;25.32;74.51
68109;SHT30;54893;49.864;19.084;2022-08-19T06:02:40;25.69;73.58
68109;SHT30;54893;49.864;19.084;2022-08-19T06:07:40;26.16;72.89
68109;SHT30;54893;49.864;19.084;2022-08-19T06:12:41;26.44;71.53
68109;SHT30;54893;49.864;19.084;2022-08-19T06:17:41;26.62;70.52
68109;SHT30;54893;49.864;19.084;2022-08-19T06:22:46;26.27;70.77
68109;SHT30;54893;49.864;19.084;2022-08-19T06:27:49;26.28;70.39
68109;SHT30;54893;49.864;19.084;2022-08-19T06:32:49;26.57;70.23
68109;SHT30;54893;49.864;19.084;2022-08-19T06:37:49;26.40;71.03
68109;SHT30;54893;49.864;19.084;2022-08-19T06:42:50;26.70;72.74
68109;SHT30;54893;49.864;19.084;2022-08-19T06:47:51;27.36;70.42
68109;SHT30;54893;49.864;19.084;2022-08-19T06:52:54;27.53;67.14
68109;SHT30;54893;49.864;19.084;2022-08-19T06:57:54;27.76;66.88
68109;SHT30;54893;49.864;19.084;2022-08-19T07:02:55;27.71;67.86
68109;SHT30;54893;49.864;19.084;2022-08-19T07:07:55;27.82;68.81
68109;SHT30;54893;49.864;19.084;2022-08-19T07:12:56;28.04;67.77
68109;SHT30;54893;49.864;19.084;2022-08-19T07:17:56;28.47;65.72
68109;SHT30;54893;49.864;19.084;2022-08-19T07:22:57;28.07;67.23
68109;SHT30;54893;49.864;19.084;2022-08-19T07:27:57;27.85;65.58
68109;SHT30;54893;49.864;19.084;2022-08-19T07:32:58;28.48;64.57
68109;SHT30;54893;49.864;19.084;2022-08-19T07:37:58;28.36;66.24
68109;SHT30;54893;49.864;19.084;2022-08-19T07:43:03;28.68;65.47
68109;SHT30;54893;49.864;19.084;2022-08-19T07:48:03;29.18;64.34
68109;SHT30;54893;49.864;19.084;2022-08-19T07:53:04;29.32;62.10
68109;SHT30;54893;49.864;19.084;2022-08-19T07:58:04;29.48;60.73
68109;SHT30;54893;49.864;19.084;2022-08-19T08:03:05;29.75;58.99
68109;SHT30;54893;49.864;19.084;2022-08-19T08:08:05;30.05;57.87
68109;SHT30;54893;49.864;19.084;2022-08-19T08:13:25;30.71;56.56
68109;SHT30;54893;49.864;19.084;2022-08-19T08:18:26;32.44;53.86
68109;SHT30;54893;49.864;19.084;2022-08-19T08:23:26;33.07;52.85
68109;SHT30;54893;49.864;19.084;2022-08-19T08:28:26;33.25;52.84
68109;SHT30;54893;49.864;19.084;2022-08-19T08:33:28;32.27;52.81
68109;SHT30;54893;49.864;19.084;2022-08-19T08:38:29;31.79;55.01
68109;SHT30;54893;49.864;19.084;2022-08-19T08:43:33;31.29;56.33
68109;SHT30;54893;49.864;19.084;2022-08-19T08:49:15;30.70;53.33
68109;SHT30;54893;49.864;19.084;2022-08-19T08:54:20;30.21;57.04
68109;SHT30;54893;49.864;19.084;2022-08-19T08:59:31;30.00;55.60
68109;SHT30;54893;49.864;19.084;2022-08-19T09:04:37;29.87;57.08
68109;SHT30;54893;49.864;19.084;2022-08-19T09:09:42;29.59;56.55
68109;SHT30;54893;49.864;19.084;2022-08-19T09:20:06;29.67;56.72
68109;SHT30;54893;49.864;19.084;2022-08-19T09:25:09;29.59;57.36
68109;SHT30;54893;49.864;19.084;2022-08-19T09:30:24;29.72;57.35
68109;SHT30;54893;49.864;19.084;2022-08-19T09:35:27;29.77;56.42
68109;SHT30;54893;49.864;19.084;2022-08-19T09:40:29;30.02;56.85
68109;SHT30;54893;49.864;19.084;2022-08-19T09:45:29;30.13;56.86
68109;SHT30;54893;49.864;19.084;2022-08-19T09:50:30;30.06;57.00
68109;SHT30;54893;49.864;19.084;2022-08-19T09:55:35;30.10;56.59
68109;SHT30;54893;49.864;19.084;2022-08-19T10:00:37;30.31;56.10
68109;SHT30;54893;49.864;19.084;2022-08-19T10:05:38;30.36;56.37
68109;SHT30;54893;49.864;19.084;2022-08-19T10:10:50;30.29;57.22
68109;SHT30;54893;49.864;19.084;2022-08-19T10:15:52;30.33;57.47
68109;SHT30;54893;49.864;19.084;2022-08-19T10:21:03;30.43;57.19
68109;SHT30;54893;49.864;19.084;2022-08-19T10:26:06;30.57;57.64
68109;SHT30;54893;49.864;19.084;2022-08-19T10:31:09;30.78;58.91
68109;SHT30;54893;49.864;19.084;2022-08-19T10:36:13;31.17;57.29
68109;SHT30;54893;49.864;19.084;2022-08-19T10:41:20;31.31;57.30
68109;SHT30;54893;49.864;19.084;2022-08-19T10:46:24;31.38;57.04
68109;SHT30;54893;49.864;19.084;2022-08-19T10:51:25;31.51;56.28
68109;SHT30;54893;49.864;19.084;2022-08-19T10:56:44;31.82;55.92
68109;SHT30;54893;49.864;19.084;2022-08-19T11:01:58;31.78;55.57
68109;SHT30;54893;49.864;19.084;2022-08-19T11:06:59;31.90;55.42
68109;SHT30;54893;49.864;19.084;2022-08-19T11:12:00;32.10;55.28
68109;SHT30;54893;49.864;19.084;2022-08-19T11:17:01;32.33;54.50
68109;SHT30;54893;49.864;19.084;2022-08-19T11:22:02;33.24;53.20
68109;SHT30;54893;49.864;19.084;2022-08-19T11:27:06;33.18;52.99
68109;SHT30;54893;49.864;19.084;2022-08-19T11:32:09;33.01;53.78
68109;SHT30;54893;49.864;19.084;2022-08-19T11:37:10;33.64;53.15
68109;SHT30;54893;49.864;19.084;2022-08-19T11:42:10;33.92;51.95
68109;SHT30;54893;49.864;19.084;2022-08-19T11:47:30;33.28;53.83
68109;SHT30;54893;49.864;19.084;2022-08-19T11:52:30;33.21;53.94
68109;SHT30;54893;49.864;19.084;2022-08-19T11:57:31;33.25;53.31
68109;SHT30;54893;49.864;19.084;2022-08-19T12:02:32;33.15;53.82
68109;SHT30;54893;49.864;19.084;2022-08-19T12:07:33;32.94;54.51
68109;SHT30;54893;49.864;19.084;2022-08-19T12:12:34;32.69;54.95
68109;SHT30;54893;49.864;19.084;2022-08-19T12:17:34;32.26;55.13
68109;SHT30;54893;49.864;19.084;2022-08-19T12:22:35;32.15;55.82
68109;SHT30;54893;49.864;19.084;2022-08-19T12:27:37;32.08;56.49
68109;SHT30;54893;49.864;19.084;2022-08-19T12:32:38;32.03;57.08
68109;SHT30;54893;49.864;19.084;2022-08-19T12:37:39;31.99;57.64
68109;SHT30;54893;49.864;19.084;2022-08-19T12:42:44;32.16;57.60
68109;SHT30;54893;49.864;19.084;2022-08-19T12:47:44;32.22;57.53
68109;SHT30;54893;49.864;19.084;2022-08-19T12:52:46;32.15;58.10
68109;SHT30;54893;49.864;19.084;2022-08-19T12:57:46;31.97;58.88
68109;SHT30;54893;49.864;19.084;2022-08-19T13:02:50;31.82;59.07
68109;SHT30;54893;49.864;19.084;2022-08-19T13:07:53;31.90;58.63
68109;SHT30;54893;49.864;19.084;2022-08-19T13:12:56;31.99;58.93
68109;SHT30;54893;49.864;19.084;2022-08-19T13:17:59;32.27;58.86
68109;SHT30;54893;49.864;19.084;2022-08-19T13:22:59;32.32;58.98
68109;SHT30;54893;49.864;19.084;2022-08-19T13:28:00;32.23;59.71
68109;SHT30;54893;49.864;19.084;2022-08-19T13:33:00;32.66;59.04
68109;SHT30;54893;49.864;19.084;2022-08-19T13:38:20;32.97;58.48
68109;SHT30;54893;49.864;19.084;2022-08-19T13:43:22;33.45;56.32
68109;SHT30;54893;49.864;19.084;2022-08-19T13:48:24;33.64;56.54
68109;SHT30;54893;49.864;19.084;2022-08-19T13:53:26;33.72;55.16
68109;SHT30;54893;49.864;19.084;2022-08-19T13:58:26;33.68;54.24
68109;SHT30;54893;49.864;19.084;2022-08-19T14:03:27;33.44;53.96
68109;SHT30;54893;49.864;19.084;2022-08-19T14:08:28;33.38;55.45
68109;SHT30;54893;49.864;19.084;2022-08-19T14:13:29;33.69;54.30
68109;SHT30;54893;49.864;19.084;2022-08-19T14:18:29;32.93;56.18
68109;SHT30;54893;49.864;19.084;2022-08-19T14:23:31;33.79;54.73
68109;SHT30;54893;49.864;19.084;2022-08-19T14:28:31;35.64;52.90
68109;SHT30;54893;49.864;19.084;2022-08-19T14:33:31;37.52;50.17
68109;SHT30;54893;49.864;19.084;2022-08-19T14:38:32;36.93;50.50
68109;SHT30;54893;49.864;19.084;2022-08-19T14:43:33;37.15;50.99
68109;SHT30;54893;49.864;19.084;2022-08-19T14:48:34;36.21;53.39
68109;SHT30;54893;49.864;19.084;2022-08-19T14:53:36;35.71;53.04
68109;SHT30;54893;49.864;19.084;2022-08-19T14:58:38;36.17;50.82
68109;SHT30;54893;49.864;19.084;2022-08-19T15:03:39;35.53;52.35
68109;SHT30;54893;49.864;19.084;2022-08-19T15:08:41;36.59;49.90
68109;SHT30;54893;49.864;19.084;2022-08-19T15:13:44;36.76;49.11
68109;SHT30;54893;49.864;19.084;2022-08-19T15:18:49;35.67;50.70
68109;SHT30;54893;49.864;19.084;2022-08-19T15:23:50;36.08;50.03
68109;SHT30;54893;49.864;19.084;2022-08-19T15:28:51;37.05;48.22
68109;SHT30;54893;49.864;19.084;2022-08-19T15:33:51;37.37;46.80
68109;SHT30;54893;49.864;19.084;2022-08-19T15:38:52;36.85;47.59
68109;SHT30;54893;49.864;19.084;2022-08-19T15:43:59;34.56;49.93
68109;SHT30;54893;49.864;19.084;2022-08-19T15:49:00;32.90;52.76
68109;SHT30;54893;49.864;19.084;2022-08-19T15:54:03;32.33;53.72
68109;SHT30;54893;49.864;19.084;2022-08-19T15:59:04;31.86;54.16
68109;SHT30;54893;49.864;19.084;2022-08-19T16:04:23;31.29;54.63
68109;SHT30;54893;49.864;19.084;2022-08-19T16:09:42;30.56;56.37
68109;SHT30;54893;49.864;19.084;2022-08-19T16:14:42;30.44;56.34
68109;SHT30;54893;49.864;19.084;2022-08-19T16:19:42;30.39;56.31
68109;SHT30;54893;49.864;19.084;2022-08-19T16:24:43;30.24;56.98
68109;SHT30;54893;49.864;19.084;2022-08-19T16:29:43;29.73;59.10
68109;SHT30;54893;49.864;19.084;2022-08-19T16:34:45;28.07;67.59
68109;SHT30;54893;49.864;19.084;2022-08-19T16:39:45;27.04;69.81
68109;SHT30;54893;49.864;19.084;2022-08-19T16:44:46;26.52;72.17
68109;SHT30;54893;49.864;19.084;2022-08-19T16:49:46;25.84;73.23
68109;SHT30;54893;49.864;19.084;2022-08-19T16:54:47;25.45;75.16
68109;SHT30;54893;49.864;19.084;2022-08-19T16:59:47;25.04;80.96
68109;SHT30;54893;49.864;19.084;2022-08-19T17:04:48;24.67;82.87
68109;SHT30;54893;49.864;19.084;2022-08-19T17:09:50;24.57;81.43
68109;SHT30;54893;49.864;19.084;2022-08-19T17:14:51;24.48;81.44
68109;SHT30;54893;49.864;19.084;2022-08-19T17:19:51;24.57;82.62
68109;SHT30;54893;49.864;19.084;2022-08-19T17:24:52;24.61;83.78
68109;SHT30;54893;49.864;19.084;2022-08-19T17:29:53;24.62;80.09
68109;SHT30;54893;49.864;19.084;2022-08-19T17:34:53;24.32;79.89
68109;SHT30;54893;49.864;19.084;2022-08-19T17:39:54;24.31;78.01
68109;SHT30;54893;49.864;19.084;2022-08-19T17:44:54;23.98;78.46
68109;SHT30;54893;49.864;19.084;2022-08-19T17:49:58;23.74;79.68
68109;SHT30;54893;49.864;19.084;2022-08-19T17:54:58;21.13;93.94
68109;SHT30;54893;49.864;19.084;2022-08-19T17:59:59;20.51;96.22
68109;SHT30;54893;49.864;19.084;2022-08-19T18:04:59;20.59;96.07
68109;SHT30;54893;49.864;19.084;2022-08-19T18:10:00;20.32;96.82
68109;SHT30;54893;49.864;19.084;2022-08-19T18:15:01;20.17;97.94
68109;SHT30;54893;49.864;19.084;2022-08-19T18:20:08;20.15;98.44
68109;SHT30;54893;49.864;19.084;2022-08-19T18:25:21;20.05;98.23
68109;SHT30;54893;49.864;19.084;2022-08-19T18:30:24;20.15;95.41
68109;SHT30;54893;49.864;19.084;2022-08-19T18:35:27;20.25;95.48
68109;SHT30;54893;49.864;19.084;2022-08-19T18:40:31;20.28;95.31
68109;SHT30;54893;49.864;19.084;2022-08-19T18:45:50;20.21;95.64
68109;SHT30;54893;49.864;19.084;2022-08-19T18:51:10;20.22;95.37
68109;SHT30;54893;49.864;19.084;2022-08-19T18:56:13;20.26;97.11
68109;SHT30;54893;49.864;19.084;2022-08-19T19:01:17;20.22;95.27
68109;SHT30;54893;49.864;19.084;2022-08-19T19:06:27;20.26;95.49
68109;SHT30;54893;49.864;19.084;2022-08-19T19:11:35;20.31;95.78
68109;SHT30;54893;49.864;19.084;2022-08-19T19:16:41;20.22;95.30
68109;SHT30;54893;49.864;19.084;2022-08-19T19:21:47;20.25;96.44
68109;SHT30;54893;49.864;19.084;2022-08-19T19:26:50;20.21;96.98
68109;SHT30;54893;49.864;19.084;2022-08-19T19:31:51;20.13;97.23
68109;SHT30;54893;49.864;19.084;2022-08-19T19:36:52;20.08;96.62
68109;SHT30;54893;49.864;19.084;2022-08-19T19:41:52;20.08;97.74
68109;SHT30;54893;49.864;19.084;2022-08-19T19:46:53;20.04;97.82
68109;SHT30;54893;49.864;19.084;2022-08-19T19:51:54;19.97;97.89
68109;SHT30;54893;49.864;19.084;2022-08-19T19:56:55;19.91;98.42
68109;SHT30;54893;49.864;19.084;2022-08-19T20:01:55;19.90;98.64
68109;SHT30;54893;49.864;19.084;2022-08-19T20:06:56;19.95;98.39
68109;SHT30;54893;49.864;19.084;2022-08-19T20:11:56;20.00;98.43
68109;SHT30;54893;49.864;19.084;2022-08-19T20:17:02;19.91;98.38
68109;SHT30;54893;49.864;19.084;2022-08-19T20:22:04;20.01;97.17
68109;SHT30;54893;49.864;19.084;2022-08-19T20:27:05;20.00;97.61
68109;SHT30;54893;49.864;19.084;2022-08-19T20:32:07;20.00;98.39
68109;SHT30;54893;49.864;19.084;2022-08-19T20:37:07;19.97;97.40
68109;SHT30;54893;49.864;19.084;2022-08-19T20:42:08;20.00;95.48
68109;SHT30;54893;49.864;19.084;2022-08-19T20:47:08;20.05;96.58
68109;SHT30;54893;49.864;19.084;2022-08-19T20:52:09;19.98;97.82
68109;SHT30;54893;49.864;19.084;2022-08-19T20:57:10;20.03;97.93
68109;SHT30;54893;49.864;19.084;2022-08-19T21:02:10;20.04;95.65
68109;SHT30;54893;49.864;19.084;2022-08-19T21:07:10;20.13;95.70
68109;SHT30;54893;49.864;19.084;2022-08-19T21:12:11;20.10;96.00
68109;SHT30;54893;49.864;19.084;2022-08-19T21:17:12;20.04;96.33
68109;SHT30;54893;49.864;19.084;2022-08-19T21:22:12;20.03;96.36
68109;SHT30;54893;49.864;19.084;2022-08-19T21:27:13;20.07;95.99
68109;SHT30;54893;49.864;19.084;2022-08-19T21:32:13;19.98;96.88
68109;SHT30;54893;49.864;19.084;2022-08-19T21:37:14;20.05;96.74
68109;SHT30;54893;49.864;19.084;2022-08-19T21:42:15;20.03;97.50
68109;SHT30;54893;49.864;19.084;2022-08-19T21:47:15;20.01;96.45
68109;SHT30;54893;49.864;19.084;2022-08-19T21:52:23;20.24;95.52
68109;SHT30;54893;49.864;19.084;2022-08-19T21:57:24;20.32;95.27
68109;SHT30;54893;49.864;19.084;2022-08-19T22:02:24;20.28;95.75
68109;SHT30;54893;49.864;19.084;2022-08-19T22:07:26;20.14;97.26
68109;SHT30;54893;49.864;19.084;2022-08-19T22:12:29;20.14;97.49
68109;SHT30;54893;49.864;19.084;2022-08-19T22:17:30;20.08;97.43
68109;SHT30;54893;49.864;19.084;2022-08-19T22:22:32;20.13;96.96
68109;SHT30;54893;49.864;19.084;2022-08-19T22:27:32;20.13;97.91
68109;SHT30;54893;49.864;19.084;2022-08-19T22:32:32;20.00;98.02
68109;SHT30;54893;49.864;19.084;2022-08-19T22:37:33;19.93;98.20
68109;SHT30;54893;49.864;19.084;2022-08-19T22:42:34;19.87;97.75
68109;SHT30;54893;49.864;19.084;2022-08-19T22:47:35;19.91;96.08
68109;SHT30;54893;49.864;19.084;2022-08-19T22:52:35;20.03;95.68
68109;SHT30;54893;49.864;19.084;2022-08-19T22:57:36;20.24;95.22
68109;SHT30;54893;49.864;19.084;2022-08-19T23:02:36;20.24;95.24
68109;SHT30;54893;49.864;19.084;2022-08-19T23:07:40;20.29;95.37
68109;SHT30;54893;49.864;19.084;2022-08-19T23:12:42;20.24;95.57
68109;SHT30;54893;49.864;19.084;2022-08-19T23:17:44;20.00;96.89
68109;SHT30;54893;49.864;19.084;2022-08-19T23:22:46;19.97;97.00
68109;SHT30;54893;49.864;19.084;2022-08-19T23:27:48;19.94;97.48
68109;SHT30;54893;49.864;19.084;2022-08-19T23:33:18;20.07;95.77
68109;SHT30;54893;49.864;19.084;2022-08-19T23:38:24;19.95;95.69
68109;SHT30;54893;49.864;19.084;2022-08-19T23:43:24;20.14;95.32
68109;SHT30;54893;49.864;19.084;2022-08-19T23:48:29;20.22;94.70
68109;SHT30;54893;49.864;19.084;2022-08-19T23:53:32;20.28;94.53
68109;SHT30;54893;49.864;19.084;2022-08-19T23:58:35;20.51;93.25
